Time;durP1;ratioP1;P1;durP2;ratioP2;P2;SDS_P1;SDS_P2;PMS_P1;PMS_P2;Temp;Humidity;BMP_temperature;BMP_pressure;BME280_temperature;BME280_humidity;BME280_pressure;Samples;Min_cycle;Max_cycle;Signal;HPM_P1;HPM_P2
2021/04/17 00:00:33;;;;;;;10.57;4.50;;;;;;;3.82;100.00;98313.53;4961938;28;20114;-81
2021/04/17 00:02:59;;;;;;;16.92;4.75;;;;;;;3.85;100.00;98321.03;4995315;28;20046;-81
2021/04/17 00:05:26;;;;;;;10.32;4.47;;;;;;;3.81;100.00;98304.69;4996804;28;20351;-80
2021/04/17 00:07:52;;;;;;;10.65;4.40;;;;;;;3.81;100.00;98317.25;4978908;28;20042;-81
2021/04/17 00:10:18;;;;;;;10.63;4.43;;;;;;;3.79;100.00;98306.81;5013063;28;20033;-81
2021/04/17 00:12:44;;;;;;;17.85;4.60;;;;;;;3.80;100.00;98316.44;5014412;28;20050;-81
2021/04/17 00:15:11;;;;;;;9.57;3.95;;;;;;;3.79;100.00;98304.91;4995317;28;20057;-80
2021/04/17 00:17:38;;;;;;;10.43;4.10;;;;;;;3.79;100.00;98307.59;4995296;28;20130;-81
2021/04/17 00:20:05;;;;;;;6.75;3.55;;;;;;;3.79;100.00;98314.84;4993463;28;20057;-79
2021/04/17 00:22:31;;;;;;;9.18;3.60;;;;;;;3.81;100.00;98306.53;4992632;28;20057;-81
2021/04/17 00:24:58;;;;;;;10.73;3.80;;;;;;;3.85;100.00;98303.09;5010077;28;20046;-81
2021/04/17 00:27:25;;;;;;;9.77;3.47;;;;;;;3.91;100.00;98299.41;5012266;28;20054;-80
2021/04/17 00:29:51;;;;;;;10.70;3.45;;;;;;;3.94;100.00;98306.13;4997030;28;20044;-81
2021/04/17 00:32:17;;;;;;;9.38;2.97;;;;;;;3.98;100.00;98301.84;5012931;28;20056;-80
2021/04/17 00:34:44;;;;;;;9.70;3.00;;;;;;;4.01;100.00;98288.78;5012989;28;20071;-79
2021/04/17 00:37:10;;;;;;;7.78;2.95;;;;;;;4.04;100.00;98295.47;5014851;28;20096;-80
2021/04/17 00:39:36;;;;;;;5.90;2.30;;;;;;;4.05;100.00;98297.13;4991407;28;20046;-81
2021/04/17 00:42:03;;;;;;;10.27;2.83;;;;;;;4.06;100.00;98285.31;5016157;28;20099;-81
2021/04/17 00:44:30;;;;;;;7.72;2.33;;;;;;;4.08;100.00;98296.56;5012915;28;20042;-80
2021/04/17 00:46:56;;;;;;;7.05;2.70;;;;;;;4.11;100.00;98288.03;5015910;28;20049;-80
2021/04/17 00:49:23;;;;;;;5.97;2.78;;;;;;;4.05;100.00;98289.06;5018541;28;20046;-80
2021/04/17 00:51:50;;;;;;;6.28;2.60;;;;;;;4.06;100.00;98285.31;5017616;28;20100;-81
2021/04/17 00:54:16;;;;;;;6.90;2.63;;;;;;;3.99;100.00;98276.69;5018124;28;20107;-80
2021/04/17 00:56:42;;;;;;;7.13;2.78;;;;;;;3.95;100.00;98276.41;4985222;28;20137;-80
2021/04/17 00:59:09;;;;;;;7.63;3.60;;;;;;;3.93;100.00;98278.53;5001632;28;20050;-82
2021/04/17 01:01:35;;;;;;;6.80;3.33;;;;;;;3.95;100.00;98278.28;5017188;28;20057;-82
2021/04/17 01:04:15;;;;;;;6.13;3.20;;;;;;;3.95;100.00;98284.44;5016153;28;20066;-80
2021/04/17 01:07:17;;;;;;;8.98;2.72;;;;;;;3.93;100.00;98291.09;5032950;28;20148;-81
2021/04/17 01:09:45;;;;;;;5.38;2.58;;;;;;;3.87;100.00;98276.91;5018050;28;20056;-81
2021/04/17 01:12:22;;;;;;;7.57;2.63;;;;;;;3.85;100.00;98276.31;5032369;28;20053;-82
2021/04/17 01:14:51;;;;;;;7.40;2.70;;;;;;;3.90;100.00;98288.97;5016627;28;20453;-83
2021/04/17 01:17:18;;;;;;;7.18;2.90;;;;;;;3.85;100.00;98278.19;4980568;28;20066;-82
2021/04/17 01:20:19;;;;;;;8.40;2.95;;;;;;;3.85;100.00;98287.03;5016890;28;20046;-82
2021/04/17 01:23:05;;;;;;;9.82;2.53;;;;;;;3.85;100.00;98288.88;5033576;28;20482;-81
2021/04/17 01:26:10;;;;;;;8.32;2.60;;;;;;;3.88;100.00;98270.44;5000775;28;20042;-80
2021/04/17 01:28:40;;;;;;;8.57;2.70;;;;;;;3.87;100.00;98279.56;5032219;28;20049;-82
2021/04/17 01:31:09;;;;;;;7.57;3.08;;;;;;;3.84;100.00;98271.22;5046192;28;20051;-81
2021/04/17 01:33:38;;;;;;;5.60;2.30;;;;;;;3.89;100.00;98296.19;5023372;28;20497;-81
2021/04/17 01:36:05;;;;;;;8.73;2.72;;;;;;;3.84;100.00;98280.06;5036981;28;20057;-81
2021/04/17 01:38:42;;;;;;;11.50;2.85;;;;;;;3.92;100.00;98284.16;5053013;28;20087;-81
2021/04/17 01:41:12;;;;;;;5.22;2.38;;;;;;;3.85;100.00;98272.81;5037335;28;20060;-82
2021/04/17 01:43:39;;;;;;;6.07;2.35;;;;;;;3.75;100.00;98274.38;5038198;28;20095;-81
2021/04/17 01:46:08;;;;;;;5.22;2.40;;;;;;;3.74;100.00;98262.03;5020383;28;20258;-81
2021/04/17 01:48:36;;;;;;;7.90;2.70;;;;;;;3.78;100.00;98265.03;5036369;28;20053;-81
2021/04/17 01:51:06;;;;;;;5.75;2.53;;;;;;;3.79;100.00;98264.75;5037358;28;20095;-81
2021/04/17 01:53:35;;;;;;;7.40;2.97;;;;;;;3.85;100.00;98272.81;5038646;28;20045;-80
2021/04/17 01:56:03;;;;;;;5.28;2.35;;;;;;;3.85;100.00;98264.78;5018994;28;20460;-81
2021/04/17 01:58:35;;;;;;;6.75;2.60;;;;;;;3.84;100.00;98264.00;5013224;28;20042;-80
2021/04/17 02:01:02;;;;;;;5.13;2.05;;;;;;;3.81;100.00;98263.69;5015369;28;20061;-80
2021/04/17 02:03:28;;;;;;;7.35;2.30;;;;;;;3.79;100.00;98263.97;5036709;28;20046;-81
2021/04/17 02:05:55;;;;;;;6.28;2.10;;;;;;;3.84;100.00;98268.56;5035222;28;20119;-80
2021/04/17 02:08:22;;;;;;;7.35;2.83;;;;;;;3.84;100.00;98263.19;5051515;28;20099;-81
2021/04/17 02:10:50;;;;;;;6.47;2.35;;;;;;;3.77;100.00;98272.25;5035403;28;20065;-81
2021/04/17 02:13:17;;;;;;;10.55;2.72;;;;;;;3.73;100.00;98262.31;5037926;28;20056;-80
2021/04/17 02:15:44;;;;;;;8.02;2.55;;;;;;;3.68;100.00;98260.41;5054339;28;20497;-81
2021/04/17 02:18:18;;;;;;;5.82;1.95;;;;;;;3.75;100.00;98265.53;5059876;28;20048;-82
2021/04/17 02:20:50;;;;;;;9.35;2.38;;;;;;;3.73;100.00;98275.69;5008746;28;20050;-81
2021/04/17 02:23:17;;;;;;;4.85;1.83;;;;;;;3.74;100.00;98270.06;5023410;28;20417;-80
2021/04/17 02:25:45;;;;;;;7.38;2.47;;;;;;;3.70;100.00;98268.16;5021876;28;20049;-82
2021/04/17 02:28:12;;;;;;;8.45;2.60;;;;;;;3.64;100.00;98258.47;5019451;28;20049;-83
2021/04/17 02:30:38;;;;;;;6.20;2.08;;;;;;;3.66;100.00;98261.72;5036477;28;20038;-82
2021/04/17 02:33:05;;;;;;;9.40;2.00;;;;;;;3.61;100.00;98254.44;5018118;28;20132;-81
2021/04/17 02:35:31;;;;;;;5.40;2.20;;;;;;;3.61;100.00;98254.44;5034377;28;20379;-82
2021/04/17 02:37:58;;;;;;;5.43;2.45;;;;;;;3.63;100.00;98268.38;5016998;28;20049;-83
2021/04/17 02:40:24;;;;;;;10.07;2.60;;;;;;;3.64;100.00;98259.28;5015739;28;20060;-81
2021/04/17 02:42:50;;;;;;;6.22;2.50;;;;;;;3.60;100.00;98255.50;5033644;28;20498;-81
2021/04/17 02:45:16;;;;;;;5.32;2.28;;;;;;;3.62;100.00;98261.41;5035177;28;20046;-82
2021/04/17 02:47:45;;;;;;;5.57;2.20;;;;;;;3.58;100.00;98254.97;5016554;28;20057;-80
2021/04/17 02:50:12;;;;;;;6.93;2.10;;;;;;;3.53;100.00;98267.47;5036375;28;20053;-82
2021/04/17 02:52:40;;;;;;;6.32;2.10;;;;;;;3.49;100.00;98256.47;5025925;28;20097;-82
2021/04/17 02:55:08;;;;;;;4.85;2.13;;;;;;;3.50;100.00;98265.31;5020012;28;20385;-81
2021/04/17 02:57:34;;;;;;;5.38;2.15;;;;;;;3.45;100.00;98268.75;5037756;28;20049;-80
2021/04/17 03:00:00;;;;;;;7.38;2.35;;;;;;;3.43;100.00;98254.00;5055206;28;20136;-81
2021/04/17 03:02:26;;;;;;;8.38;2.50;;;;;;;3.39;100.00;98259.06;5036256;28;20073;-82
2021/04/17 03:04:52;;;;;;;10.02;2.90;;;;;;;3.45;100.00;98259.91;5018759;28;20071;-82
2021/04/17 03:07:18;;;;;;;6.07;2.38;;;;;;;3.43;100.00;98254.00;5018455;28;20137;-82
2021/04/17 03:09:44;;;;;;;5.78;2.08;;;;;;;3.47;100.00;98247.06;5035861;28;20140;-81
2021/04/17 03:12:11;;;;;;;8.15;2.40;;;;;;;3.47;100.00;98260.47;5034959;28;20512;-81
2021/04/17 03:14:40;;;;;;;7.63;2.33;;;;;;;3.47;100.00;98255.09;5018373;28;20049;-81
2021/04/17 03:17:08;;;;;;;6.28;2.20;;;;;;;3.45;100.00;98250.03;5050738;28;20092;-79
2021/04/17 03:19:35;;;;;;;5.68;2.13;;;;;;;3.47;100.00;98252.44;5020227;28;20041;-81
2021/04/17 03:22:02;;;;;;;9.05;2.38;;;;;;;3.44;100.00;98252.94;5020681;28;20152;-81
2021/04/17 03:24:29;;;;;;;10.18;2.30;;;;;;;3.38;100.00;98248.63;5020545;28;20049;-81
2021/04/17 03:26:55;;;;;;;8.85;2.40;;;;;;;3.35;100.00;98249.94;5002253;28;20053;-83
2021/04/17 03:29:22;;;;;;;7.03;2.13;;;;;;;3.36;100.00;98240.00;5019452;28;20050;-81
2021/04/17 03:31:48;;;;;;;5.95;2.40;;;;;;;3.35;100.00;98235.72;5095996;23;20083;-78
2021/04/17 03:34:14;;;;;;;8.68;2.17;;;;;;;3.37;100.00;98253.16;5100143;28;20051;-76
2021/04/17 03:36:41;;;;;;;7.45;2.40;;;;;;;3.37;100.00;98253.16;5099017;28;20032;-78
2021/04/17 03:39:07;;;;;;;8.73;2.35;;;;;;;3.41;100.00;98251.56;5102141;28;20066;-77
2021/04/17 03:41:33;;;;;;;9.15;2.65;;;;;;;3.41;100.00;98251.56;5091288;28;20222;-76
2021/04/17 03:43:59;;;;;;;7.82;2.70;;;;;;;3.42;100.00;98255.06;5111705;22;20528;-79
2021/04/17 03:46:25;;;;;;;8.07;2.63;;;;;;;3.39;100.00;98256.38;5057760;28;20504;-78
2021/04/17 03:48:52;;;;;;;7.90;2.20;;;;;;;3.44;100.00;98259.09;5074208;28;20056;-78
2021/04/17 03:51:18;;;;;;;9.50;2.40;;;;;;;3.36;100.00;98246.16;5082849;28;20037;-79
2021/04/17 03:53:44;;;;;;;6.45;2.53;;;;;;;3.29;100.00;98253.59;5072466;28;20055;-78
2021/04/17 03:56:10;;;;;;;11.10;2.13;;;;;;;3.35;100.00;98259.81;5073386;28;20101;-78
2021/04/17 03:58:36;;;;;;;6.50;1.95;;;;;;;3.40;100.00;98271.38;5073320;28;20045;-78
2021/04/17 04:01:03;;;;;;;6.32;2.38;;;;;;;3.39;100.00;98267.09;5073587;28;20040;-78
2021/04/17 04:03:29;;;;;;;7.10;1.98;;;;;;;3.37;100.00;98263.84;5073577;28;20051;-78
2021/04/17 04:05:55;;;;;;;12.60;2.30;;;;;;;3.29;100.00;98266.97;5075022;28;20387;-79
2021/04/17 04:08:21;;;;;;;10.00;2.22;;;;;;;3.26;100.00;98264.81;5056556;28;20424;-78
2021/04/17 04:10:47;;;;;;;5.88;1.98;;;;;;;3.35;100.00;98275.88;5071312;28;20048;-78
2021/04/17 04:13:14;;;;;;;6.85;2.33;;;;;;;3.33;100.00;98272.66;5070386;28;20036;-78
2021/04/17 04:15:40;;;;;;;7.00;2.28;;;;;;;3.31;100.00;98272.88;5071025;28;20055;-78
2021/04/17 04:18:08;;;;;;;6.05;2.25;;;;;;;3.31;100.00;98280.09;5070547;28;20070;-78
2021/04/17 04:20:37;;;;;;;11.95;2.70;;;;;;;3.28;100.00;98281.41;5072160;28;20036;-78
2021/04/17 04:23:05;;;;;;;9.43;2.50;;;;;;;3.24;100.00;98279.50;5097260;28;20055;-78
2021/04/17 04:25:31;;;;;;;9.38;2.40;;;;;;;3.17;100.00;98290.41;5074586;28;20048;-78
2021/04/17 04:27:57;;;;;;;9.57;2.50;;;;;;;3.04;100.00;98288.13;5086907;28;20504;-78
2021/04/17 04:30:24;;;;;;;9.45;2.53;;;;;;;2.95;100.00;98293.09;5083558;28;20053;-78
2021/04/17 04:32:51;;;;;;;14.88;2.75;;;;;;;2.96;100.00;98284.03;5073678;28;20043;-78
2021/04/17 04:35:17;;;;;;;8.82;2.17;;;;;;;2.90;100.00;98286.88;5071436;28;20147;-78
2021/04/17 04:37:44;;;;;;;9.68;2.92;;;;;;;2.87;100.00;98300.72;5073476;28;20048;-79
2021/04/17 04:40:11;;;;;;;8.65;2.58;;;;;;;2.60;100.00;98297.19;5085207;28;20032;-78
2021/04/17 04:42:37;;;;;;;10.35;2.70;;;;;;;2.56;100.00;98299.53;5071088;28;20045;-79
2021/04/17 04:45:07;;;;;;;8.73;3.35;;;;;;;2.43;100.00;98300.69;5055280;28;20041;-78
2021/04/17 04:47:34;;;;;;;9.00;3.00;;;;;;;2.38;100.00;98308.66;5055556;28;20053;-79
2021/04/17 04:50:00;;;;;;;12.82;3.28;;;;;;;2.33;100.00;98302.41;5076359;28;20092;-78
2021/04/17 04:52:27;;;;;;;8.25;3.10;;;;;;;2.37;100.00;98309.72;5058542;28;20071;-79
2021/04/17 04:54:53;;;;;;;11.45;3.97;;;;;;;2.26;100.00;98307.13;5077321;28;20047;-79
2021/04/17 04:57:19;;;;;;;9.50;3.75;;;;;;;2.21;100.00;98310.53;5077268;28;20040;-79
2021/04/17 04:59:45;;;;;;;8.65;3.67;;;;;;;2.12;100.00;98311.19;5077885;28;20146;-79
2021/04/17 05:02:12;;;;;;;9.90;3.47;;;;;;;2.05;100.00;98300.69;5087433;28;20597;-79
2021/04/17 05:04:40;;;;;;;12.13;3.50;;;;;;;2.08;100.00;98312.72;5071804;28;20101;-79
2021/04/17 05:07:07;;;;;;;9.75;4.30;;;;;;;1.88;100.00;98298.00;5074904;28;20041;-79
2021/04/17 05:09:33;;;;;;;12.70;4.53;;;;;;;1.83;100.00;98294.47;5078041;28;20036;-79
2021/04/17 05:11:59;;;;;;;16.58;4.18;;;;;;;1.86;100.00;98310.78;5079544;28;20401;-78
2021/04/17 05:14:25;;;;;;;11.05;4.80;;;;;;;2.06;100.00;98309.50;5062976;28;20059;-78
2021/04/17 05:16:51;;;;;;;11.98;4.45;;;;;;;2.18;100.00;98310.22;5080343;28;20040;-78
2021/04/17 05:19:17;;;;;;;12.68;4.65;;;;;;;2.16;100.00;98313.16;5078234;28;20040;-79
2021/04/17 05:21:44;;;;;;;14.52;4.28;;;;;;;2.17;100.00;98301.38;5079352;28;20048;-78
2021/04/17 05:24:10;;;;;;;14.27;4.20;;;;;;;2.25;100.00;98311.66;5082373;28;20058;-78
2021/04/17 05:26:39;;;;;;;8.20;3.70;;;;;;;2.35;100.00;98306.47;5076106;28;20049;-78
2021/04/17 05:29:05;;;;;;;12.15;4.05;;;;;;;2.31;100.00;98313.38;5096023;28;20044;-78
2021/04/17 05:31:32;;;;;;;9.88;3.92;;;;;;;2.28;100.00;98310.38;5081023;28;20044;-79
2021/04/17 05:33:58;;;;;;;13.05;4.40;;;;;;;2.18;100.00;98312.88;5071769;28;20043;-78
2021/04/17 05:36:24;;;;;;;11.73;4.70;;;;;;;2.07;100.00;98303.91;5072471;28;20070;-79
2021/04/17 05:38:52;;;;;;;10.48;5.05;;;;;;;2.07;100.00;98305.75;5073305;28;20036;-78
2021/04/17 05:41:26;;;;;;;15.60;4.95;;;;;;;2.03;100.00;98310.81;5091604;28;20105;-78
2021/04/17 05:43:53;;;;;;;15.13;5.13;;;;;;;2.05;100.00;98313.22;5092163;28;20047;-79
2021/04/17 05:46:20;;;;;;;14.32;5.35;;;;;;;2.11;100.00;98315.75;5075308;28;20178;-78
2021/04/17 05:48:46;;;;;;;19.23;4.82;;;;;;;2.11;100.00;98310.41;5068895;28;20048;-78
2021/04/17 05:51:15;;;;;;;15.98;4.95;;;;;;;2.08;100.00;98308.22;5069492;28;20048;-79
2021/04/17 05:53:45;;;;;;;8.90;4.85;;;;;;;2.12;100.00;98314.66;5075871;28;20048;-78
2021/04/17 05:56:11;;;;;;;20.15;5.38;;;;;;;2.16;100.00;98301.66;5075732;28;20048;-79
2021/04/17 05:58:38;;;;;;;18.88;5.55;;;;;;;2.23;100.00;98307.63;5060855;28;20055;-80
2021/04/17 06:01:04;;;;;;;20.33;5.70;;;;;;;2.29;100.00;98299.44;5087360;28;20040;-79
2021/04/17 06:03:31;;;;;;;15.73;5.30;;;;;;;2.22;100.00;98325.50;5074470;28;20044;-78
2021/04/17 06:05:57;;;;;;;19.05;5.22;;;;;;;2.15;100.00;98311.50;5072539;28;20341;-79
2021/04/17 06:08:25;;;;;;;11.40;4.57;;;;;;;2.17;100.00;98317.41;5074348;28;20220;-78
2021/04/17 06:10:51;;;;;;;16.15;5.32;;;;;;;2.20;100.00;98316.13;5069247;28;20041;-79
2021/04/17 06:13:17;;;;;;;16.23;6.28;;;;;;;2.17;100.00;98304.06;5055065;28;20422;-79
2021/04/17 06:15:43;;;;;;;11.77;5.35;;;;;;;2.14;100.00;98303.75;5075594;28;20055;-78
2021/04/17 06:18:09;;;;;;;19.58;5.45;;;;;;;2.23;100.00;98304.94;5072682;28;20044;-79
2021/04/17 06:20:36;;;;;;;14.77;5.60;;;;;;;2.30;100.00;98303.72;5071335;28;20162;-80
2021/04/17 06:23:02;;;;;;;17.23;6.00;;;;;;;2.35;100.00;98298.44;5066920;28;20570;-78
2021/04/17 06:25:29;;;;;;;12.65;5.90;;;;;;;2.36;100.00;98294.75;5066221;28;20137;-78
2021/04/17 06:27:55;;;;;;;17.05;5.82;;;;;;;2.32;100.00;98285.56;5069724;28;20107;-78
2021/04/17 06:30:21;;;;;;;13.55;5.63;;;;;;;2.30;100.00;98290.38;5067648;28;20093;-78
2021/04/17 06:32:49;;;;;;;15.50;5.72;;;;;;;2.45;100.00;98287.91;5068321;28;20762;-78
2021/04/17 06:35:16;;;;;;;14.15;5.35;;;;;;;2.39;100.00;98288.91;5081205;28;20472;-78
2021/04/17 06:37:42;;;;;;;13.77;5.38;;;;;;;2.49;100.00;98286.38;5066392;28;20536;-79
2021/04/17 06:40:09;;;;;;;14.02;5.13;;;;;;;2.64;100.00;98287.59;5066226;28;20071;-78
2021/04/17 06:42:42;;;;;;;10.63;4.80;;;;;;;2.69;100.00;98285.00;5068314;28;20040;-77
2021/04/17 06:45:11;;;;;;;12.13;4.75;;;;;;;2.58;100.00;98288.63;5066444;28;20063;-78
2021/04/17 06:47:39;;;;;;;10.50;5.03;;;;;;;2.65;100.00;98294.59;5066172;28;20047;-78
2021/04/17 06:50:07;;;;;;;15.13;5.65;;;;;;;2.72;100.00;98281.84;5053323;28;20061;-78
2021/04/17 06:52:36;;;;;;;11.88;4.63;;;;;;;2.74;100.00;98279.72;5060618;28;20163;-78
2021/04/17 06:55:05;;;;;;;16.30;5.15;;;;;;;2.90;100.00;98286.88;5073739;28;20048;-79
2021/04/17 06:57:31;;;;;;;8.50;4.20;;;;;;;3.07;100.00;98277.72;5073697;28;20047;-79
2021/04/17 06:59:59;;;;;;;18.95;5.60;;;;;;;3.23;100.00;98283.25;5067139;28;20040;-78
2021/04/17 07:02:26;;;;;;;16.58;6.07;;;;;;;3.34;100.00;98280.41;5086355;28;20098;-78
2021/04/17 07:04:53;;;;;;;14.10;5.68;;;;;;;3.38;100.00;98275.38;5083480;28;20056;-78
2021/04/17 07:07:19;;;;;;;14.18;4.97;;;;;;;3.32;100.00;98277.19;5067365;28;20052;-78
2021/04/17 07:09:45;;;;;;;9.88;4.82;;;;;;;3.23;100.00;98280.56;5069171;28;20132;-78
2021/04/17 07:12:13;;;;;;;13.40;4.32;;;;;;;3.05;100.00;98268.31;5067920;28;20056;-78
2021/04/17 07:14:47;;;;;;;10.95;5.18;;;;;;;3.05;100.00;98281.69;5083446;28;20105;-78
2021/04/17 07:17:13;;;;;;;10.30;5.05;;;;;;;3.03;100.00;98281.13;5061004;28;20534;-78
2021/04/17 07:19:59;;;;;;;13.38;5.57;;;;;;;3.01;100.00;98283.25;5050509;28;20504;-78
2021/04/17 07:22:32;;;;;;;12.82;5.25;;;;;;;2.98;100.00;98275.75;5051850;28;20048;-78
2021/04/17 07:25:05;;;;;;;12.38;5.40;;;;;;;3.09;100.00;98270.25;5076800;28;20472;-78
2021/04/17 07:27:45;;;;;;;11.00;4.65;;;;;;;3.06;100.00;98269.94;5068840;28;20044;-79
2021/04/17 07:30:14;;;;;;;14.93;5.25;;;;;;;3.11;100.00;98272.69;5065745;28;20053;-78
2021/04/17 07:33:09;;;;;;;11.23;4.93;;;;;;;3.09;100.00;98264.09;5069040;28;20143;-78
2021/04/17 07:35:45;;;;;;;10.90;5.33;;;;;;;2.98;100.00;98260.50;5050060;28;20098;-78
2021/04/17 07:38:11;;;;;;;16.48;6.00;;;;;;;3.00;100.00;98270.94;5076197;28;20044;-79
2021/04/17 07:40:38;;;;;;;14.80;6.55;;;;;;;2.92;100.00;98266.84;5073328;28;20052;-79
2021/04/17 07:43:04;;;;;;;16.90;7.85;;;;;;;2.97;100.00;98272.25;5056832;28;20374;-79
2021/04/17 07:45:38;;;;;;;21.52;8.70;;;;;;;3.01;100.00;98272.56;5073662;28;20048;-78
2021/04/17 07:48:29;;;;;;;16.98;9.70;;;;;;;3.02;100.00;98276.88;5092647;28;20059;-80
2021/04/17 07:50:57;;;;;;;16.98;10.00;;;;;;;3.11;100.00;98270.00;5071712;28;20534;-78
2021/04/17 07:53:24;;;;;;;18.80;10.48;;;;;;;3.30;100.00;98262.44;5087842;28;20519;-79
2021/04/17 07:55:50;;;;;;;21.98;12.65;;;;;;;3.37;100.00;98268.41;5070761;28;20052;-79
2021/04/17 07:58:16;;;;;;;25.90;13.00;;;;;;;3.25;100.00;98270.41;5084092;28;20028;-79
2021/04/17 08:00:43;;;;;;;21.90;13.15;;;;;;;3.28;100.00;98276.06;5067926;28;20488;-78
2021/04/17 08:03:10;;;;;;;24.10;12.90;;;;;;;3.42;100.00;98277.28;5068904;28;20041;-79
2021/04/17 08:05:39;;;;;;;23.38;13.82;;;;;;;3.49;100.00;98272.53;5071893;28;20059;-78
2021/04/17 08:08:08;;;;;;;22.20;13.00;;;;;;;3.67;100.00;98274.84;5072655;28;20059;-79
2021/04/17 08:10:35;;;;;;;24.33;12.60;;;;;;;3.67;100.00;98282.88;5072414;28;20044;-79
2021/04/17 08:13:03;;;;;;;23.13;12.15;;;;;;;3.53;100.00;98270.97;5073946;28;20079;-78
2021/04/17 08:15:31;;;;;;;17.42;10.85;;;;;;;3.61;100.00;98267.81;5071131;28;20098;-80
2021/04/17 08:17:57;;;;;;;20.02;11.00;;;;;;;3.72;100.00;98266.03;5082767;28;20047;-78
2021/04/17 08:20:23;;;;;;;19.63;9.98;;;;;;;3.78;100.00;98265.03;5055780;28;20074;-78
2021/04/17 08:22:54;;;;;;;21.45;10.80;;;;;;;3.93;100.00;98264.31;5068628;28;20420;-79
2021/04/17 08:25:23;;;;;;;17.73;10.13;;;;;;;3.64;100.00;98266.50;5088416;28;20143;-78
2021/04/17 08:27:53;;;;;;;16.15;9.65;;;;;;;3.61;100.00;98264.34;5080124;28;20079;-79
2021/04/17 08:30:22;;;;;;;22.45;13.27;;;;;;;3.55;100.00;98260.81;5095695;28;20048;-79
2021/04/17 08:32:48;;;;;;;22.42;13.90;;;;;;;3.56;100.00;98256.28;5078166;28;20068;-79
2021/04/17 08:35:22;;;;;;;27.70;16.27;;;;;;;3.48;100.00;98270.94;5068863;28;20037;-79
2021/04/17 08:37:55;;;;;;;28.85;16.23;;;;;;;3.46;100.00;98269.56;5071758;28;20036;-78
2021/04/17 08:40:39;;;;;;;28.63;14.85;;;;;;;3.59;100.00;98269.13;5069737;28;20132;-78
2021/04/17 08:43:17;;;;;;;28.10;16.65;;;;;;;3.70;100.00;98262.81;5071425;28;20059;-79
2021/04/17 08:45:59;;;;;;;26.00;15.70;;;;;;;3.79;100.00;98258.63;5052164;28;20055;-80
2021/04/17 08:48:57;;;;;;;28.38;16.63;;;;;;;3.91;100.00;98258.41;5068299;28;20044;-79
2021/04/17 08:51:29;;;;;;;26.65;14.88;;;;;;;4.00;100.00;98254.22;5075680;28;20076;-79
2021/04/17 08:54:01;;;;;;;30.20;15.75;;;;;;;3.90;100.00;98262.97;5070377;28;20063;-81
2021/04/17 08:56:52;;;;;;;28.98;15.82;;;;;;;3.85;100.00;98265.59;5068402;28;20055;-81
2021/04/17 08:59:32;;;;;;;31.35;16.52;;;;;;;3.99;100.00;98255.28;5071164;28;20059;-80
2021/04/17 09:02:18;;;;;;;23.67;14.68;;;;;;;4.07;100.00;98255.59;5068602;28;20075;-80
2021/04/17 09:04:58;;;;;;;26.13;15.52;;;;;;;4.24;100.00;98255.44;5069291;28;20060;-80
2021/04/17 09:07:26;;;;;;;24.13;13.40;;;;;;;4.46;100.00;98253.44;5071798;28;20108;-80
2021/04/17 09:09:53;;;;;;;24.58;13.15;;;;;;;4.81;100.00;98256.28;5073946;28;20044;-80
2021/04/17 09:12:21;;;;;;;18.50;11.13;;;;;;;4.84;100.00;98255.75;5091913;28;20906;-80
2021/04/17 09:14:50;;;;;;;19.10;11.38;;;;;;;4.74;100.00;98253.03;5069180;28;20067;-80
2021/04/17 09:17:32;;;;;;;20.40;12.50;;;;;;;4.89;100.00;98246.91;5075265;28;20071;-79
2021/04/17 09:20:00;;;;;;;20.00;12.00;;;;;;;5.20;100.00;98253.16;5056952;28;20037;-79
2021/04/17 09:22:26;;;;;;;22.08;12.70;;;;;;;5.46;100.00;98246.78;5072899;28;20120;-80
2021/04/17 09:25:03;;;;;;;20.77;12.43;;;;;;;5.66;100.00;98244.09;5073479;28;20043;-79
2021/04/17 09:27:38;;;;;;;17.52;9.95;;;;;;;5.69;100.00;98238.19;5088072;28;20066;-80
2021/04/17 09:30:06;;;;;;;19.20;10.40;;;;;;;5.90;100.00;98234.47;5089448;28;20070;-79
2021/04/17 09:32:42;;;;;;;17.77;9.77;;;;;;;6.08;100.00;98233.09;5048430;28;20322;-80
2021/04/17 09:35:13;;;;;;;14.45;8.90;;;;;;;5.96;100.00;98233.38;5051192;28;20500;-80
2021/04/17 09:37:40;;;;;;;17.00;8.38;;;;;;;5.96;100.00;98236.06;5058205;28;20458;-80
2021/04/17 09:40:07;;;;;;;12.07;7.88;;;;;;;5.87;100.00;98232.31;5069902;28;20044;-79
2021/04/17 09:42:38;;;;;;;11.48;6.70;;;;;;;5.70;100.00;98239.00;5069627;28;20058;-79
2021/04/17 09:45:12;;;;;;;14.35;7.15;;;;;;;5.30;100.00;98232.53;5069147;22;20047;-79
2021/04/17 09:47:59;;;;;;;12.65;6.82;;;;;;;5.42;100.00;98216.19;5047016;28;20065;-81
2021/04/17 09:50:27;;;;;;;12.40;6.93;;;;;;;5.46;100.00;98230.66;5072829;28;20045;-78
2021/04/17 09:52:54;;;;;;;12.70;6.65;;;;;;;5.48;100.00;98220.47;5072376;28;20051;-78
2021/04/17 09:55:20;;;;;;;13.73;7.40;;;;;;;5.47;100.00;98216.19;5072048;28;20591;-77
2021/04/17 09:57:48;;;;;;;13.13;7.70;;;;;;;5.71;100.00;98214.56;5045694;28;20056;-78
2021/04/17 10:00:23;;;;;;;14.93;7.97;;;;;;;6.02;100.00;98208.09;5034482;28;20052;-78
2021/04/17 10:02:49;;;;;;;17.75;8.65;;;;;;;6.51;100.00;98202.06;5016347;28;20041;-78
2021/04/17 10:05:32;;;;;;;10.77;7.05;;;;;;;6.90;100.00;98201.09;5047927;28;20554;-79
2021/04/17 10:07:59;;;;;;;16.40;6.80;;;;;;;7.27;100.00;98189.03;5033932;28;20040;-78
2021/04/17 10:10:34;;;;;;;9.93;5.13;;;;;;;7.05;100.00;98185.94;5063692;28;20044;-76
2021/04/17 10:13:01;;;;;;;13.57;5.65;;;;;;;6.81;100.00;98189.28;5034552;28;20110;-79
2021/04/17 10:15:31;;;;;;;13.50;6.28;;;;;;;6.71;100.00;98191.25;5074423;28;20040;-78
2021/04/17 10:18:00;;;;;;;12.38;6.95;;;;;;;6.49;100.00;98191.59;5055140;28;20029;-79
2021/04/17 10:20:29;;;;;;;11.02;6.75;;;;;;;6.66;100.00;98188.56;5039047;28;20789;-76
2021/04/17 10:23:03;;;;;;;8.75;5.45;;;;;;;6.93;100.00;98198.94;5055460;28;20049;-79
2021/04/17 10:25:42;;;;;;;11.80;6.07;;;;;;;6.96;100.00;98185.72;5041366;28;20479;-77
2021/04/17 10:28:16;;;;;;;9.73;5.95;;;;;;;6.90;100.00;98186.84;5059937;28;20507;-79
2021/04/17 10:30:57;;;;;;;9.50;5.68;;;;;;;6.96;100.00;98193.81;5052624;28;20040;-79
2021/04/17 10:33:28;;;;;;;16.98;6.07;;;;;;;6.70;100.00;98173.47;5059216;28;20051;-78
2021/04/17 10:35:58;;;;;;;13.35;6.80;;;;;;;6.51;100.00;98167.91;5051829;28;20099;-77
2021/04/17 10:38:31;;;;;;;13.90;6.53;;;;;;;6.74;100.00;98187.97;5056054;28;20057;-79
2021/04/17 10:41:00;;;;;;;12.05;6.80;;;;;;;6.24;100.00;98192.50;5053714;28;20121;-78
2021/04/17 10:43:30;;;;;;;17.25;7.30;;;;;;;6.48;100.00;98181.13;5055726;28;20056;-78
2021/04/17 10:46:00;;;;;;;13.05;7.07;;;;;;;6.42;100.00;98174.16;5024726;28;20049;-81
2021/04/17 10:48:38;;;;;;;12.73;8.05;;;;;;;6.53;100.00;98171.13;5075995;28;20135;-79
2021/04/17 10:51:15;;;;;;;14.38;7.60;;;;;;;6.64;100.00;98174.56;5084083;28;20036;-80
2021/04/17 10:53:47;;;;;;;14.00;8.65;;;;;;;6.77;100.00;98177.47;5077546;28;20080;-78
2021/04/17 10:56:17;;;;;;;14.73;7.20;;;;;;;6.47;100.00;98183.00;5060478;28;20484;-79
2021/04/17 10:58:46;;;;;;;13.45;7.30;;;;;;;6.19;100.00;98189.00;5059108;28;20047;-78
2021/04/17 11:01:16;;;;;;;16.45;7.60;;;;;;;6.10;100.00;98179.88;5064717;28;20053;-79
2021/04/17 11:03:51;;;;;;;17.92;8.05;;;;;;;6.20;100.00;98177.16;5039235;28;20515;-81
2021/04/17 11:06:25;;;;;;;16.77;7.32;;;;;;;6.28;100.00;98174.72;5064792;28;20064;-79
2021/04/17 11:09:09;;;;;;;15.25;7.88;;;;;;;6.58;100.00;98175.69;5038627;28;20048;-80
2021/04/17 11:11:36;;;;;;;16.73;7.70;;;;;;;6.46;100.00;98169.81;5058451;28;20067;-79
2021/04/17 11:14:05;;;;;;;17.48;7.30;;;;;;;6.57;100.00;98168.69;5057725;28;20108;-79
2021/04/17 11:16:45;;;;;;;13.30;6.22;;;;;;;6.55;100.00;98165.50;5052402;28;20052;-79
2021/04/17 11:19:31;;;;;;;13.57;6.40;;;;;;;6.58;100.00;98171.09;5047380;28;20047;-79
2021/04/17 11:22:14;;;;;;;9.90;6.28;;;;;;;6.53;100.00;98164.97;5048370;28;20440;-80
2021/04/17 11:25:04;;;;;;;8.68;4.90;;;;;;;6.38;100.00;98176.56;5049061;28;20041;-78
2021/04/17 11:27:31;;;;;;;10.60;5.82;;;;;;;6.59;100.00;98170.03;5060771;28;20496;-77
2021/04/17 11:29:57;;;;;;;11.32;5.55;;;;;;;6.59;100.00;98163.84;5063403;28;20041;-77
2021/04/17 11:32:26;;;;;;;11.57;5.53;;;;;;;6.35;100.00;98165.56;5028609;28;20056;-78
2021/04/17 11:34:53;;;;;;;8.70;4.90;;;;;;;6.23;100.00;98171.25;5029638;28;20041;-78
2021/04/17 11:37:20;;;;;;;9.90;5.32;;;;;;;6.19;100.00;98167.50;5039531;28;20056;-79